createdAt,value
2022-08-01T00:00:30.013Z,1013.84
2022-08-01T00:01:30.167Z,1013.82
2022-08-01T00:02:30.375Z,1013.87
2022-08-01T00:03:30.515Z,1013.93
2022-08-01T00:04:30.675Z,1013.91
2022-08-01T00:05:30.860Z,1013.91
2022-08-01T00:06:31.015Z,1013.89
2022-08-01T00:07:31.165Z,1013.85
2022-08-01T00:08:31.365Z,1013.89
2022-08-01T00:09:31.545Z,1013.87
2022-08-01T00:10:31.702Z,1013.86
2022-08-01T00:11:31.856Z,1013.92
2022-08-01T00:12:32.052Z,1013.93
2022-08-01T00:13:32.207Z,1013.96
2022-08-01T00:14:32.873Z,1014.02
2022-08-01T00:15:32.523Z,1014.01
2022-08-01T00:16:32.714Z,1013.99
2022-08-01T00:17:32.866Z,1014.03
2022-08-01T00:18:33.064Z,1014.07
2022-08-01T00:19:33.236Z,1014.02
2022-08-01T00:20:33.396Z,1013.93
2022-08-01T00:21:33.557Z,1013.96
2022-08-01T00:22:33.747Z,1013.93
2022-08-01T00:23:33.909Z,1013.93
2022-08-01T00:24:34.087Z,1013.94
2022-08-01T00:25:34.789Z,1013.94
2022-08-01T00:26:34.437Z,1013.98
2022-08-01T00:27:37.614Z,1013.92
2022-08-01T00:28:34.777Z,1013.94
2022-08-01T00:30:11.713Z,1013.92
2022-08-01T00:30:36.098Z,1013.98
2022-08-01T00:31:35.278Z,1013.97
2022-08-01T00:32:35.477Z,1013.97
2022-08-01T00:33:35.628Z,1013.98
2022-08-01T00:34:35.846Z,1013.93
2022-08-01T00:35:35.999Z,1013.95
2022-08-01T00:36:36.189Z,1013.89
2022-08-01T00:37:36.348Z,1013.87
2022-08-01T00:38:36.546Z,1013.89
2022-08-01T00:39:36.716Z,1013.90
2022-08-01T00:40:36.909Z,1013.93
2022-08-01T00:41:37.046Z,1013.91
2022-08-01T00:42:43.018Z,1013.93
2022-08-01T00:43:38.427Z,1013.91
2022-08-01T00:44:37.635Z,1013.91
2022-08-01T00:45:37.789Z,1013.93
2022-08-01T00:46:37.987Z,1013.92
2022-08-01T00:47:38.169Z,1013.96
2022-08-01T00:48:38.331Z,1013.98
2022-08-01T00:49:38.519Z,1013.96
2022-08-01T00:50:38.670Z,1013.94
2022-08-01T00:51:38.829Z,1013.96
2022-08-01T00:52:38.992Z,1013.96
2022-08-01T00:53:51.893Z,1014.02
2022-08-01T00:54:40.358Z,1014.00
2022-08-01T00:55:39.501Z,1013.98
2022-08-01T00:56:39.668Z,1014.02
2022-08-01T00:58:01.449Z,1014.03
2022-08-01T00:58:41.011Z,1014.03
2022-08-01T00:59:41.414Z,1014.01
2022-08-01T01:00:53.038Z,1014.02
2022-08-01T01:01:46.752Z,1013.99
2022-08-01T01:02:41.732Z,1014.00
2022-08-01T01:03:58.603Z,1014.00
2022-08-01T01:04:42.118Z,1013.94
2022-08-01T01:05:41.251Z,1013.90
2022-08-01T01:06:41.451Z,1013.94
2022-08-01T01:07:49.820Z,1013.91
2022-08-01T01:08:42.801Z,1013.93
2022-08-01T01:09:42.015Z,1013.94
2022-08-01T01:10:42.172Z,1013.95
2022-08-01T01:11:42.360Z,1013.96
2022-08-01T01:12:43.378Z,1013.92
2022-08-01T01:13:50.993Z,1013.94
2022-08-01T01:14:43.902Z,1013.89
2022-08-01T01:15:43.042Z,1013.88
2022-08-01T01:16:43.203Z,1013.89
2022-08-01T01:17:50.287Z,1013.93
2022-08-01T01:18:44.553Z,1013.93
2022-08-01T01:19:43.763Z,1013.90
2022-08-01T01:20:43.943Z,1013.89
2022-08-01T01:21:44.114Z,1013.89
2022-08-01T01:22:44.273Z,1013.90
2022-08-01T01:23:44.434Z,1013.85
2022-08-01T01:24:44.593Z,1013.86
2022-08-01T01:25:44.763Z,1013.85
2022-08-01T01:26:44.933Z,1013.89
2022-08-01T01:27:45.086Z,1013.85
2022-08-01T01:28:45.284Z,1013.84
2022-08-01T01:30:00.153Z,1013.88
2022-08-01T01:30:46.641Z,1013.89
2022-08-01T01:31:45.811Z,1013.87
2022-08-01T01:32:46.005Z,1013.84
2022-08-01T01:33:47.529Z,1013.82
2022-08-01T01:34:46.344Z,1013.79
2022-08-01T01:35:46.515Z,1013.82
2022-08-01T01:36:46.682Z,1013.81
2022-08-01T01:37:46.834Z,1013.77
2022-08-01T01:38:47.034Z,1013.79
2022-08-01T01:39:54.111Z,1013.80
2022-08-01T01:40:48.408Z,1013.81
2022-08-01T01:41:47.535Z,1013.79
2022-08-01T01:42:47.735Z,1013.78
2022-08-01T01:43:47.897Z,1013.80
2022-08-01T01:44:48.057Z,1013.78
2022-08-01T01:45:48.227Z,1013.75
2022-08-01T01:46:48.386Z,1013.78
2022-08-01T01:47:48.547Z,1013.75
2022-08-01T01:48:48.855Z,1013.79
2022-08-01T01:49:48.914Z,1013.76
2022-08-01T01:50:49.094Z,1013.76
2022-08-01T01:51:57.415Z,1013.79
2022-08-01T01:52:50.436Z,1013.72
2022-08-01T01:53:49.607Z,1013.73
2022-08-01T01:54:49.776Z,1013.79
2022-08-01T01:55:50.298Z,1013.76
2022-08-01T01:56:50.126Z,1013.75
2022-08-01T01:57:50.293Z,1013.76
2022-08-01T01:58:50.449Z,1013.72
2022-08-01T01:59:50.615Z,1013.71
2022-08-01T02:00:50.787Z,1013.69
2022-08-01T02:02:05.359Z,1013.67
2022-08-01T02:02:52.178Z,1013.71
2022-08-01T02:03:51.316Z,1013.72
2022-08-01T02:04:51.478Z,1013.73
2022-08-01T02:05:51.647Z,1013.76
2022-08-01T02:06:51.808Z,1013.73
2022-08-01T02:07:51.968Z,1013.73
2022-08-01T02:08:53.160Z,1013.75
2022-08-01T02:09:52.310Z,1013.74
2022-08-01T02:10:52.519Z,1013.73
2022-08-01T02:12:09.287Z,1013.74
2022-08-01T02:12:53.859Z,1013.76
2022-08-01T02:13:53.049Z,1013.71
2022-08-01T02:14:53.209Z,1013.73
2022-08-01T02:15:59.325Z,1013.73
2022-08-01T02:16:54.538Z,1013.73
2022-08-01T02:17:53.719Z,1013.68
2022-08-01T02:18:53.887Z,1013.72
2022-08-01T02:19:54.047Z,1013.71
2022-08-01T02:20:54.229Z,1013.71
2022-08-01T02:21:54.390Z,1013.71
2022-08-01T02:22:54.550Z,1013.72
2022-08-01T02:23:54.710Z,1013.71
2022-08-01T02:24:54.871Z,1013.69
2022-08-01T02:26:10.395Z,1013.73
2022-08-01T02:26:56.190Z,1013.68
2022-08-01T02:27:55.380Z,1013.73
2022-08-01T02:28:55.540Z,1013.67
2022-08-01T02:29:55.700Z,1013.68
2022-08-01T02:30:55.900Z,1013.68
2022-08-01T02:31:56.020Z,1013.68
2022-08-01T02:32:56.201Z,1013.68
2022-08-01T02:33:56.361Z,1013.67
2022-08-01T02:34:56.521Z,1013.66
2022-08-01T02:36:30.325Z,1013.68
2022-08-01T02:36:57.842Z,1013.67
2022-08-01T02:37:57.024Z,1013.69
2022-08-01T02:38:57.189Z,1013.65
2022-08-01T02:39:57.351Z,1013.69
2022-08-01T02:40:57.572Z,1013.67
2022-08-01T02:41:57.732Z,1013.66
2022-08-01T02:42:57.902Z,1013.66
2022-08-01T02:43:58.062Z,1013.68
2022-08-01T02:44:58.222Z,1013.70
2022-08-01T02:45:58.393Z,1013.73
2022-08-01T02:46:58.560Z,1013.69
2022-08-01T02:47:58.715Z,1013.65
2022-08-01T02:48:58.927Z,1013.65
2022-08-01T02:49:59.033Z,1013.65
2022-08-01T02:50:59.213Z,1013.64
2022-08-01T02:51:59.382Z,1013.62
2022-08-01T02:52:59.544Z,1013.64
2022-08-01T02:53:59.694Z,1013.66
2022-08-01T02:54:59.892Z,1013.68
2022-08-01T02:56:00.124Z,1013.67
2022-08-01T02:57:00.226Z,1013.67
2022-08-01T02:58:00.989Z,1013.65
2022-08-01T02:59:00.553Z,1013.69
2022-08-01T03:00:00.714Z,1013.70
2022-08-01T03:01:00.903Z,1013.70
2022-08-01T03:02:01.109Z,1013.70
2022-08-01T03:03:01.226Z,1013.67
2022-08-01T03:04:01.386Z,1013.63
2022-08-01T03:05:01.556Z,1013.66
2022-08-01T03:06:01.764Z,1013.67
2022-08-01T03:07:01.916Z,1013.65
2022-08-01T03:08:03.705Z,1013.66
2022-08-01T03:09:02.265Z,1013.70
2022-08-01T03:10:02.446Z,1013.67
2022-08-01T03:11:02.643Z,1013.66
2022-08-01T03:12:02.948Z,1013.72
2022-08-01T03:13:02.966Z,1013.72
2022-08-01T03:14:03.147Z,1013.74
2022-08-01T03:15:03.329Z,1013.73
2022-08-01T03:16:03.536Z,1013.73
2022-08-01T03:17:03.684Z,1013.77
2022-08-01T03:18:03.865Z,1013.82
2022-08-01T03:19:04.058Z,1013.78
2022-08-01T03:20:04.238Z,1013.80
2022-08-01T03:21:04.433Z,1013.84
2022-08-01T03:22:04.888Z,1013.86
2022-08-01T03:23:04.737Z,1013.86
2022-08-01T03:24:04.925Z,1013.84
2022-08-01T03:25:05.117Z,1013.81
2022-08-01T03:26:05.277Z,1013.84
2022-08-01T03:27:05.455Z,1013.86
2022-08-01T03:28:05.605Z,1013.88
2022-08-01T03:29:05.801Z,1013.89
2022-08-01T03:30:05.947Z,1013.87
2022-08-01T03:31:06.166Z,1013.87
2022-08-01T03:32:06.430Z,1013.88
2022-08-01T03:33:06.467Z,1013.86
2022-08-01T03:34:06.638Z,1013.88
2022-08-01T03:35:06.828Z,1013.87
2022-08-01T03:36:06.999Z,1013.91
2022-08-01T03:37:07.168Z,1013.87
2022-08-01T03:38:16.229Z,1013.92
2022-08-01T03:39:08.500Z,1013.89
2022-08-01T03:40:07.672Z,1013.90
2022-08-01T03:41:07.837Z,1013.92
2022-08-01T03:42:08.220Z,1013.90
2022-08-01T03:43:08.199Z,1013.89
2022-08-01T03:44:08.359Z,1013.87
2022-08-01T03:45:08.557Z,1013.88
2022-08-01T03:46:08.727Z,1013.87
2022-08-01T03:47:08.860Z,1013.85
2022-08-01T03:48:09.050Z,1013.92
2022-08-01T03:49:09.235Z,1013.92
2022-08-01T03:50:12.322Z,1013.93
2022-08-01T03:51:09.568Z,1013.91
2022-08-01T03:52:09.746Z,1013.93
2022-08-01T03:53:09.937Z,1013.91
2022-08-01T03:54:10.108Z,1013.91
2022-08-01T03:55:10.298Z,1013.89
2022-08-01T03:56:10.479Z,1013.92
2022-08-01T03:57:35.467Z,1013.94
2022-08-01T03:58:11.801Z,1013.94
2022-08-01T03:59:10.949Z,1013.96
2022-08-01T04:00:11.138Z,1013.96
2022-08-01T04:01:15.664Z,1013.92
2022-08-01T04:02:11.490Z,1013.97
2022-08-01T04:03:11.671Z,1013.97
2022-08-01T04:04:11.881Z,1013.96
2022-08-01T04:05:12.052Z,1013.97
2022-08-01T04:06:12.251Z,1013.97
2022-08-01T04:07:12.401Z,1013.99
2022-08-01T04:08:12.581Z,1013.98
2022-08-01T04:09:13.729Z,1013.97
2022-08-01T04:10:12.969Z,1013.96
2022-08-01T04:11:13.162Z,1013.96
2022-08-01T04:12:13.323Z,1014.00
2022-08-01T04:13:13.472Z,1013.95
2022-08-01T04:14:13.665Z,1014.00
2022-08-01T04:15:13.850Z,1014.03
2022-08-01T04:16:14.044Z,1014.03
2022-08-01T04:17:14.225Z,1013.98
2022-08-01T04:18:14.421Z,1014.00
2022-08-01T04:19:14.593Z,1014.02
2022-08-01T04:20:14.786Z,1014.08
2022-08-01T04:21:14.982Z,1014.08
2022-08-01T04:22:15.166Z,1014.07
2022-08-01T04:23:15.315Z,1014.06
2022-08-01T04:24:15.501Z,1014.08
2022-08-01T04:25:15.685Z,1014.11
2022-08-01T04:26:15.882Z,1014.10
2022-08-01T04:27:16.014Z,1014.09
2022-08-01T04:28:16.211Z,1014.11
2022-08-01T04:29:16.394Z,1014.10
2022-08-01T04:30:18.085Z,1014.15
2022-08-01T04:31:16.814Z,1014.16
2022-08-01T04:32:16.944Z,1014.16
2022-08-01T04:33:17.106Z,1014.18
2022-08-01T04:34:17.294Z,1014.14
2022-08-01T04:35:23.372Z,1014.17
2022-08-01T04:36:18.652Z,1014.17
2022-08-01T04:37:17.824Z,1014.16
2022-08-01T04:38:17.976Z,1014.18
2022-08-01T04:39:18.134Z,1014.16
2022-08-01T04:40:18.304Z,1014.19
2022-08-01T04:41:18.483Z,1014.17
2022-08-01T04:42:18.662Z,1014.19
2022-08-01T04:43:19.854Z,1014.21
2022-08-01T04:44:18.995Z,1014.22
2022-08-01T04:45:19.156Z,1014.20
2022-08-01T04:46:19.359Z,1014.23
2022-08-01T04:47:19.506Z,1014.23
2022-08-01T04:48:19.696Z,1014.26
2022-08-01T04:49:19.908Z,1014.30
2022-08-01T04:50:20.036Z,1014.27
2022-08-01T04:51:20.228Z,1014.29
2022-08-01T04:52:24.640Z,1014.28
2022-08-01T04:53:20.546Z,1014.27
2022-08-01T04:54:20.755Z,1014.24
2022-08-01T04:55:20.896Z,1014.24
2022-08-01T04:56:21.083Z,1014.24
2022-08-01T04:57:21.233Z,1014.24
2022-08-01T04:58:21.415Z,1014.22
2022-08-01T04:59:21.594Z,1014.19
2022-08-01T05:00:21.779Z,1014.22
2022-08-01T05:01:22.003Z,1014.22
2022-08-01T05:02:22.145Z,1014.23
2022-08-01T05:03:22.336Z,1014.19
2022-08-01T05:04:22.518Z,1014.20
2022-08-01T05:05:22.698Z,1014.23
2022-08-01T05:06:22.888Z,1014.24
2022-08-01T05:07:23.094Z,1014.18
2022-08-01T05:08:23.239Z,1014.19
2022-08-01T05:09:24.637Z,1014.19
2022-08-01T05:10:23.598Z,1014.20
2022-08-01T05:11:23.788Z,1014.17
2022-08-01T05:12:23.938Z,1014.25
2022-08-01T05:13:24.122Z,1014.22
2022-08-01T05:14:24.309Z,1014.23
2022-08-01T05:15:24.458Z,1014.26
2022-08-01T05:16:24.689Z,1014.30
2022-08-01T05:17:24.822Z,1014.26
2022-08-01T05:18:28.346Z,1014.24
2022-08-01T05:19:25.189Z,1014.27
2022-08-01T05:20:25.375Z,1014.28
2022-08-01T05:21:25.549Z,1014.30
2022-08-01T05:22:25.739Z,1014.32
2022-08-01T05:23:34.179Z,1014.33
2022-08-01T05:24:27.080Z,1014.32
2022-08-01T05:25:57.389Z,1014.34
2022-08-01T05:26:27.471Z,1014.31
2022-08-01T05:27:26.620Z,1014.34
2022-08-01T05:28:26.822Z,1014.34
2022-08-01T05:29:27.011Z,1014.32
2022-08-01T05:30:27.190Z,1014.28
2022-08-01T05:31:27.370Z,1014.32
2022-08-01T05:32:27.519Z,1014.36
2022-08-01T05:33:27.697Z,1014.32
2022-08-01T05:34:27.872Z,1014.34
2022-08-01T05:35:48.694Z,1014.36
2022-08-01T05:36:29.262Z,1014.34
2022-08-01T05:37:28.410Z,1014.40
2022-08-01T05:38:28.594Z,1014.41
2022-08-01T05:39:28.773Z,1014.36
2022-08-01T05:40:28.952Z,1014.44
2022-08-01T05:41:29.151Z,1014.38
2022-08-01T05:42:29.304Z,1014.41
2022-08-01T05:43:29.516Z,1014.38
2022-08-01T05:44:29.675Z,1014.41
2022-08-01T05:45:29.853Z,1014.41
2022-08-01T05:46:30.062Z,1014.42
2022-08-01T05:47:30.203Z,1014.44
2022-08-01T05:48:30.382Z,1014.42
2022-08-01T05:49:30.628Z,1014.42
2022-08-01T05:50:30.734Z,1014.43
2022-08-01T05:51:30.936Z,1014.43
2022-08-01T05:52:31.083Z,1014.44
2022-08-01T05:53:31.264Z,1014.43
2022-08-01T05:54:31.458Z,1014.41
2022-08-01T05:55:31.654Z,1014.40
2022-08-01T05:56:32.471Z,1014.42
2022-08-01T05:57:31.984Z,1014.45
2022-08-01T05:58:32.164Z,1014.44
2022-08-01T05:59:32.381Z,1014.42
2022-08-01T06:00:32.524Z,1014.44
2022-08-01T06:01:32.683Z,1014.45
2022-08-01T06:02:32.904Z,1014.47
2022-08-01T06:03:33.004Z,1014.52
2022-08-01T06:04:33.194Z,1014.51
2022-08-01T06:05:33.365Z,1014.55
2022-08-01T06:06:33.575Z,1014.52
2022-08-01T06:07:33.713Z,1014.56
2022-08-01T06:08:33.896Z,1014.54
2022-08-01T06:09:34.037Z,1014.51
2022-08-01T06:10:34.215Z,1014.52
2022-08-01T06:11:34.465Z,1014.55
2022-08-01T06:12:35.754Z,1014.53
2022-08-01T06:13:34.739Z,1014.56
2022-08-01T06:14:35.926Z,1014.55
2022-08-01T06:15:35.148Z,1014.54
2022-08-01T06:16:35.301Z,1014.53
2022-08-01T06:17:35.466Z,1014.53
2022-08-01T06:18:35.649Z,1014.55
2022-08-01T06:19:35.840Z,1014.49
2022-08-01T06:20:35.991Z,1014.57
2022-08-01T06:21:36.183Z,1014.56
2022-08-01T06:22:36.330Z,1014.58
2022-08-01T06:23:36.507Z,1014.58
2022-08-01T06:24:36.687Z,1014.59
2022-08-01T06:25:36.874Z,1014.62
2022-08-01T06:26:37.086Z,1014.63
2022-08-01T06:27:37.224Z,1014.64
2022-08-01T06:28:37.406Z,1014.65
2022-08-01T06:29:37.578Z,1014.60
2022-08-01T06:30:37.777Z,1014.62
2022-08-01T06:31:37.945Z,1014.62
2022-08-01T06:32:38.089Z,1014.65
2022-08-01T06:33:38.269Z,1014.58
2022-08-01T06:34:38.458Z,1014.58
2022-08-01T06:35:38.628Z,1014.65
2022-08-01T06:36:38.846Z,1014.65
2022-08-01T06:37:38.979Z,1014.66
2022-08-01T06:38:39.166Z,1014.68
2022-08-01T06:39:39.357Z,1014.67
2022-08-01T06:40:39.508Z,1014.73
2022-08-01T06:41:39.717Z,1014.72
2022-08-01T06:42:39.859Z,1014.74
2022-08-01T06:43:40.038Z,1014.70
2022-08-01T06:44:40.241Z,1014.71
2022-08-01T06:45:40.411Z,1014.68
2022-08-01T06:46:40.600Z,1014.74
2022-08-01T06:47:40.789Z,1014.77
2022-08-01T06:48:40.969Z,1014.74
2022-08-01T06:49:41.157Z,1014.76
2022-08-01T06:50:41.340Z,1014.72
2022-08-01T06:51:41.541Z,1014.76
2022-08-01T06:52:41.710Z,1014.72
2022-08-01T06:53:41.899Z,1014.65
2022-08-01T06:54:42.080Z,1014.72
2022-08-01T06:55:42.261Z,1014.71
2022-08-01T06:56:42.473Z,1014.74
2022-08-01T06:57:42.613Z,1014.71
2022-08-01T06:58:42.800Z,1014.72
2022-08-01T06:59:54.210Z,1014.71
2022-08-01T07:00:44.240Z,1014.76
2022-08-01T07:01:43.421Z,1014.75
2022-08-01T07:02:43.521Z,1014.72
2022-08-01T07:03:53.181Z,1014.68
2022-08-01T07:04:44.892Z,1014.74
2022-08-01T07:05:44.082Z,1014.76
2022-08-01T07:06:44.272Z,1014.76
2022-08-01T07:07:44.433Z,1014.78
2022-08-01T07:08:44.602Z,1014.77
2022-08-01T07:09:44.772Z,1014.76
2022-08-01T07:10:44.950Z,1014.76
2022-08-01T07:11:45.121Z,1014.78
2022-08-01T07:12:45.270Z,1014.75
2022-08-01T07:13:45.783Z,1014.74
2022-08-01T07:14:45.613Z,1014.76
2022-08-01T07:15:45.794Z,1014.75
2022-08-01T07:16:46.016Z,1014.72
2022-08-01T07:17:46.136Z,1014.74
2022-08-01T07:18:46.323Z,1014.79
2022-08-01T07:19:46.503Z,1014.76
2022-08-01T07:20:51.924Z,1014.74
2022-08-01T07:21:50.135Z,1014.76
2022-08-01T07:22:48.223Z,1014.73
2022-08-01T07:23:47.206Z,1014.74
2022-08-01T07:24:47.384Z,1014.74
2022-08-01T07:25:49.954Z,1014.74
2022-08-01T07:26:53.169Z,1014.75
2022-08-01T07:27:48.942Z,1014.75
2022-08-01T07:28:48.127Z,1014.72
2022-08-01T07:29:48.304Z,1014.77
2022-08-01T07:30:48.485Z,1014.82
2022-08-01T07:31:48.685Z,1014.83
2022-08-01T07:32:48.874Z,1014.85
2022-08-01T07:33:49.558Z,1014.87
2022-08-01T07:34:49.194Z,1014.85
2022-08-01T07:35:49.373Z,1014.88
2022-08-01T07:36:49.595Z,1014.87
2022-08-01T07:37:49.725Z,1014.86
2022-08-01T07:38:49.887Z,1014.88
2022-08-01T07:39:50.054Z,1014.98
2022-08-01T07:40:50.216Z,1014.94
2022-08-01T07:42:05.356Z,1014.99
2022-08-01T07:42:51.551Z,1015.03
2022-08-01T07:43:56.624Z,1015.04
2022-08-01T07:44:51.907Z,1015.03
2022-08-01T07:45:51.058Z,1015.06
2022-08-01T07:46:51.268Z,1015.07
2022-08-01T07:47:51.407Z,1015.08
2022-08-01T07:48:51.624Z,1015.09
2022-08-01T07:49:51.747Z,1015.06
2022-08-01T07:50:51.945Z,1015.12
2022-08-01T07:52:02.325Z,1015.10
2022-08-01T07:52:53.278Z,1015.12
2022-08-01T07:53:52.471Z,1015.14
2022-08-01T07:54:52.645Z,1015.14
2022-08-01T07:55:52.827Z,1015.14
2022-08-01T07:56:53.005Z,1015.09
2022-08-01T07:57:53.188Z,1015.11
2022-08-01T07:58:53.338Z,1015.09
2022-08-01T07:59:53.509Z,1015.11
2022-08-01T08:00:53.676Z,1015.14
2022-08-01T08:01:53.935Z,1015.12
2022-08-01T08:02:54.013Z,1015.15
2022-08-01T08:03:54.170Z,1015.15
2022-08-01T08:04:54.351Z,1015.11
2022-08-01T08:05:59.696Z,1015.04
2022-08-01T08:06:55.716Z,1015.05
2022-08-01T08:07:54.882Z,1015.05
2022-08-01T08:08:55.029Z,1015.05
2022-08-01T08:09:55.201Z,1015.02
2022-08-01T08:10:55.383Z,1014.97
2022-08-01T08:11:55.571Z,1015.02
2022-08-01T08:12:55.741Z,1015.05
2022-08-01T08:13:55.923Z,1015.03
2022-08-01T08:14:56.142Z,1015.03
2022-08-01T08:15:56.281Z,1015.07
2022-08-01T08:16:56.481Z,1015.12
2022-08-01T08:17:56.642Z,1015.10
2022-08-01T08:18:56.829Z,1015.10
2022-08-01T08:19:57.010Z,1015.05
2022-08-01T08:20:57.182Z,1015.04
2022-08-01T08:21:57.390Z,1015.12
2022-08-01T08:22:57.552Z,1015.07
2022-08-01T08:23:57.742Z,1015.09
2022-08-01T08:25:00.795Z,1015.12
2022-08-01T08:25:58.104Z,1015.10
2022-08-01T08:26:58.303Z,1015.05
2022-08-01T08:27:58.454Z,1015.09
2022-08-01T08:28:58.634Z,1015.10
2022-08-01T08:29:58.814Z,1015.09
2022-08-01T08:30:58.995Z,1015.08
2022-08-01T08:31:59.193Z,1015.10
2022-08-01T08:32:59.368Z,1015.06
2022-08-01T08:33:59.554Z,1015.09
2022-08-01T08:34:59.736Z,1015.08
2022-08-01T08:35:59.904Z,1015.10
2022-08-01T08:37:00.088Z,1015.14
2022-08-01T08:38:00.254Z,1015.07
2022-08-01T08:39:00.440Z,1015.09
2022-08-01T08:40:00.624Z,1015.13
2022-08-01T08:41:00.794Z,1015.13
2022-08-01T08:42:00.997Z,1015.15
2022-08-01T08:43:01.168Z,1015.20
2022-08-01T08:44:01.364Z,1015.19
2022-08-01T08:45:01.505Z,1015.22
2022-08-01T08:46:01.703Z,1015.23
2022-08-01T08:47:02.376Z,1015.21
2022-08-01T08:48:02.077Z,1015.22
2022-08-01T08:49:02.338Z,1015.25
2022-08-01T08:50:02.490Z,1015.23
2022-08-01T08:51:02.595Z,1015.24
2022-08-01T08:52:02.800Z,1015.26
2022-08-01T08:53:02.936Z,1015.20
2022-08-01T08:54:03.127Z,1015.18
2022-08-01T08:55:03.315Z,1015.21
2022-08-01T08:56:03.498Z,1015.25
2022-08-01T08:57:03.698Z,1015.25
2022-08-01T08:58:03.839Z,1015.28
2022-08-01T08:59:03.997Z,1015.27
2022-08-01T09:00:04.168Z,1015.30
2022-08-01T09:01:04.329Z,1015.33
2022-08-01T09:02:04.564Z,1015.36
2022-08-01T09:03:04.724Z,1015.37
2022-08-01T09:04:04.849Z,1015.35
2022-08-01T09:05:05.062Z,1015.36
2022-08-01T09:06:05.197Z,1015.35
2022-08-01T09:07:05.390Z,1015.40
2022-08-01T09:08:05.540Z,1015.42
2022-08-01T09:09:05.709Z,1015.35
2022-08-01T09:10:05.903Z,1015.40
2022-08-01T09:11:06.109Z,1015.39
2022-08-01T09:12:06.361Z,1015.42
2022-08-01T09:13:06.400Z,1015.41
2022-08-01T09:14:06.580Z,1015.47
2022-08-01T09:15:06.759Z,1015.45
2022-08-01T09:16:06.940Z,1015.46
2022-08-01T09:17:07.130Z,1015.44
2022-08-01T09:18:07.311Z,1015.48
2022-08-01T09:19:07.492Z,1015.45
2022-08-01T09:20:08.678Z,1015.51
2022-08-01T09:21:07.861Z,1015.49
2022-08-01T09:22:08.642Z,1015.56
2022-08-01T09:23:08.201Z,1015.57
2022-08-01T09:24:08.381Z,1015.53
2022-08-01T09:25:08.562Z,1015.58
2022-08-01T09:26:08.742Z,1015.56
2022-08-01T09:27:08.943Z,1015.58
2022-08-01T09:28:09.081Z,1015.59
2022-08-01T09:29:10.502Z,1015.53
2022-08-01T09:30:09.452Z,1015.53
2022-08-01T09:31:09.633Z,1015.52
2022-08-01T09:32:16.095Z,1015.51
2022-08-01T09:33:17.866Z,1015.51
2022-08-01T09:34:11.163Z,1015.48
2022-08-01T09:35:10.333Z,1015.56
2022-08-01T09:36:13.158Z,1015.57
2022-08-01T09:37:11.031Z,1015.58
2022-08-01T09:38:10.892Z,1015.59
2022-08-01T09:39:11.053Z,1015.56
2022-08-01T09:40:11.219Z,1015.54
2022-08-01T09:41:11.375Z,1015.59
2022-08-01T09:42:11.553Z,1015.66
2022-08-01T09:43:11.724Z,1015.58
2022-08-01T09:44:11.882Z,1015.60
2022-08-01T09:45:23.404Z,1015.59
2022-08-01T09:46:13.235Z,1015.62
2022-08-01T09:47:12.435Z,1015.65
2022-08-01T09:48:12.598Z,1015.64
2022-08-01T09:49:12.803Z,1015.63
2022-08-01T09:50:12.926Z,1015.64
2022-08-01T09:51:13.096Z,1015.63
2022-08-01T09:52:14.285Z,1015.62
2022-08-01T09:53:29.540Z,1015.57
2022-08-01T09:54:14.606Z,1015.60
2022-08-01T09:55:13.796Z,1015.62
2022-08-01T09:56:13.956Z,1015.58
2022-08-01T09:57:14.137Z,1015.65
2022-08-01T09:58:14.297Z,1015.65
2022-08-01T09:59:14.458Z,1015.64
2022-08-01T10:00:24.234Z,1015.70
2022-08-01T10:01:15.811Z,1015.69
2022-08-01T10:02:14.977Z,1015.69
2022-08-01T10:03:15.147Z,1015.76
2022-08-01T10:04:15.509Z,1015.82
2022-08-01T10:05:18.915Z,1015.80
2022-08-01T10:06:16.655Z,1015.79
2022-08-01T10:07:15.836Z,1015.86
2022-08-01T10:08:15.969Z,1015.83
2022-08-01T10:09:17.157Z,1015.81
2022-08-01T10:10:16.342Z,1015.84
2022-08-01T10:11:16.717Z,1015.88
2022-08-01T10:12:16.719Z,1015.90
2022-08-01T10:13:16.879Z,1015.90
2022-08-01T10:14:17.683Z,1015.94
2022-08-01T10:15:17.806Z,1015.91
2022-08-01T10:16:17.419Z,1015.92
2022-08-01T10:17:18.266Z,1015.92
2022-08-01T10:18:26.115Z,1015.96
2022-08-01T10:19:18.938Z,1015.98
2022-08-01T10:20:30.462Z,1015.95
2022-08-01T10:21:45.536Z,1015.98
2022-08-01T10:22:19.472Z,1016.01
2022-08-01T10:23:19.482Z,1015.97
2022-08-01T10:24:19.071Z,1015.90
2022-08-01T10:25:18.982Z,1015.96
2022-08-01T10:26:20.151Z,1016.00
2022-08-01T10:27:24.317Z,1015.99
2022-08-01T10:28:23.755Z,1016.00
2022-08-01T10:29:24.291Z,1016.03
2022-08-01T10:30:23.781Z,1016.04
2022-08-01T10:31:20.055Z,1016.00
2022-08-01T10:32:21.237Z,1015.94
2022-08-01T10:33:51.666Z,1015.99
2022-08-01T10:34:23.042Z,1015.98
2022-08-01T10:35:45.518Z,1015.95
2022-08-01T10:36:22.754Z,1016.03
2022-08-01T10:37:21.063Z,1016.03
2022-08-01T10:38:21.216Z,1016.04
2022-08-01T10:39:21.373Z,1016.05
2022-08-01T10:40:37.056Z,1016.00
2022-08-01T10:41:22.756Z,1015.96
2022-08-01T10:42:21.944Z,1016.01
2022-08-01T10:43:22.400Z,1015.99
2022-08-01T10:44:22.311Z,1016.00
2022-08-01T10:45:22.476Z,1016.03
2022-08-01T10:46:22.655Z,1016.01
2022-08-01T10:47:26.993Z,1016.07
2022-08-01T10:48:24.624Z,1016.11
2022-08-01T10:49:23.220Z,1016.02
2022-08-01T10:50:26.164Z,1016.14
2022-08-01T10:51:51.107Z,1016.11
2022-08-01T10:52:24.697Z,1016.07
2022-08-01T10:53:31.172Z,1016.06
2022-08-01T10:54:25.795Z,1016.05
2022-08-01T10:55:24.217Z,1016.06
2022-08-01T10:56:26.625Z,1016.02
2022-08-01T10:57:27.597Z,1016.10
2022-08-01T10:58:24.718Z,1016.07
2022-08-01T10:59:50.351Z,1016.11
2022-08-01T11:00:26.058Z,1016.09
2022-08-01T11:01:25.782Z,1016.12
2022-08-01T11:02:25.428Z,1016.14
2022-08-01T11:03:47.595Z,1016.15
2022-08-01T11:04:26.778Z,1016.11
2022-08-01T11:05:25.930Z,1016.15
2022-08-01T11:06:26.097Z,1016.16
2022-08-01T11:07:26.283Z,1016.16
2022-08-01T11:08:27.444Z,1016.17
2022-08-01T11:09:36.271Z,1016.18
2022-08-01T11:10:27.779Z,1016.18
2022-08-01T11:11:26.961Z,1016.20
2022-08-01T11:12:27.178Z,1016.18
2022-08-01T11:13:27.340Z,1016.21
2022-08-01T11:14:53.694Z,1016.19
2022-08-01T11:15:30.870Z,1016.20
2022-08-01T11:16:28.328Z,1016.23
2022-08-01T11:17:28.051Z,1016.25
2022-08-01T11:18:30.790Z,1016.28
2022-08-01T11:19:28.380Z,1016.25
2022-08-01T11:20:28.565Z,1016.30
2022-08-01T11:21:57.591Z,1016.29
2022-08-01T11:22:29.921Z,1016.34
2022-08-01T11:23:29.081Z,1016.29
2022-08-01T11:24:30.241Z,1016.31
2022-08-01T11:26:06.363Z,1016.33
2022-08-01T11:26:30.571Z,1016.31
2022-08-01T11:27:31.452Z,1016.31
2022-08-01T11:28:32.711Z,1016.30
2022-08-01T11:29:31.109Z,1016.24
2022-08-01T11:30:30.269Z,1016.28
2022-08-01T11:31:30.434Z,1016.25
2022-08-01T11:32:42.414Z,1016.28
2022-08-01T11:33:31.795Z,1016.28
2022-08-01T11:34:30.953Z,1016.21
2022-08-01T11:35:31.123Z,1016.23
2022-08-01T11:36:56.714Z,1016.22
2022-08-01T11:37:32.498Z,1016.23
2022-08-01T11:38:31.719Z,1016.21
2022-08-01T11:39:36.627Z,1016.25
2022-08-01T11:40:32.974Z,1016.27
2022-08-01T11:41:37.965Z,1016.25
2022-08-01T11:42:33.344Z,1016.27
2022-08-01T11:43:32.502Z,1016.29
2022-08-01T11:44:32.662Z,1016.24
2022-08-01T11:45:32.825Z,1016.24
2022-08-01T11:46:33.027Z,1016.27
2022-08-01T11:47:36.840Z,1016.22
2022-08-01T11:48:33.349Z,1016.22
2022-08-01T11:49:33.586Z,1016.22
2022-08-01T11:50:33.664Z,1016.24
2022-08-01T11:51:33.829Z,1016.22
2022-08-01T11:52:34.581Z,1016.22
2022-08-01T11:53:34.168Z,1016.16
2022-08-01T11:54:34.875Z,1016.17
2022-08-01T11:55:34.535Z,1016.18
2022-08-01T11:56:34.707Z,1016.19
2022-08-01T11:57:35.792Z,1016.20
2022-08-01T11:58:35.048Z,1016.23
2022-08-01T11:59:38.089Z,1016.19
2022-08-01T12:00:36.419Z,1016.13
2022-08-01T12:01:36.578Z,1016.13
2022-08-01T12:02:35.853Z,1016.19
2022-08-01T12:03:35.928Z,1016.18
2022-08-01T12:04:36.110Z,1016.16
2022-08-01T12:05:36.279Z,1016.15
2022-08-01T12:06:36.448Z,1016.18
2022-08-01T12:07:36.640Z,1016.15